Overview Statistics Trail Chart Weather Telemetry Raw packets
 

This is the latest recevied weather packets stored in our database for station/object IU3OVK-13. If no packets are shown the sender has not sent any weather packets the latest 10 day(s).

<< 13 14 15 16 17 18 19 >>
Time Temp. Humidity Pressure Rain* Wind** Luminosity Snow
1788362030 29.44° C 99% 1009.4 hPa - - - -
1788361410 29.44° C 99% 1009.2 hPa - - - -
1788360790 29.44° C 99% 1010.1 hPa - - - -
1788360170 30° C 99% 1009.2 hPa - - - -
1788359550 30° C 99% 1008.8 hPa - - - -
1788358930 29.44° C 99% 1010.1 hPa - - - -
1788358309 29.44° C 99% 1010 hPa - - - -
1788357689 31.11° C 99% 1008.4 hPa - - - -
1788357069 28.89° C 99% 1010.6 hPa - - - -
1788356449 29.44° C 99% 1010.1 hPa - - - -
1788355829 30.56° C 99% 1009.3 hPa - - - -
1788355208 28.89° C 99% 1010.8 hPa - - - -
1788353968 29.44° C 99% 1011.4 hPa - - - -
1788353348 30.56° C 99% 1010.2 hPa - - - -
1788352728 30° C 99% 1011.5 hPa - - - -
1788352107 32.78° C 92% 1010.5 hPa - - - -
1788351487 32.22° C 91% 1011.7 hPa - - - -
1788350867 33.33° C 88% 1009.8 hPa - - - -
1788350247 33.89° C 87% 1007.5 hPa - - - -
1788349627 32.78° C 93% 1009.9 hPa - - - -
1788349006 32.22° C 90% 1010.6 hPa - - - -
1788348386 31.67° C 91% 1012.2 hPa - - - -
1788347766 31.67° C 92% 1012.2 hPa - - - -
1788347144 38.33° C 67% 1002 hPa - - - -
1788346524 40° C 66% 1010.3 hPa - - - -

* Rain since midnight (hover to see other rain measurements)
** Current wind speed in m/s (hover to see current wind gust speed)